Time;durP1;ratioP1;P1;durP2;ratioP2;P2;SDS_P1;SDS_P2;PMS_P1;PMS_P2;Temp;Humidity;BMP_temperature;BMP_pressure;BME280_temperature;BME280_humidity;BME280_pressure;Samples;Min_cycle;Max_cycle;Signal;HPM_P1;HPM_P2
2022/11/23 00:01:27;;;;;;;1.30;1.00;;;;;;;5.17;84.79;98617.91;6217740;28;20049;-74
2022/11/23 00:04:30;;;;;;;0.77;0.70;;;;;;;5.18;84.90;98622.13;6219558;28;20144;-74
2022/11/23 00:07:31;;;;;;;1.02;0.77;;;;;;;5.04;84.17;98617.81;6217642;28;20054;-74
2022/11/23 00:10:32;;;;;;;1.45;0.82;;;;;;;5.05;85.05;98613.47;6320795;27;20054;-74
2022/11/23 00:13:38;;;;;;;1.15;0.90;;;;;;;5.05;83.91;98606.53;6217628;28;20117;-74
2022/11/23 00:16:38;;;;;;;0.95;0.68;;;;;;;5.04;84.43;98617.81;6320269;27;20486;-74
2022/11/23 00:19:39;;;;;;;1.77;0.93;;;;;;;5.03;84.00;98620.50;6217463;28;20049;-74
2022/11/23 00:22:40;;;;;;;2.95;1.00;;;;;;;4.93;84.12;98607.28;6218672;28;20042;-75
2022/11/23 00:25:44;;;;;;;1.13;0.88;;;;;;;5.04;84.59;98604.03;6302407;28;20083;-74
2022/11/23 00:28:45;;;;;;;1.77;0.85;;;;;;;4.83;82.72;98603.59;6201057;28;20567;-75
2022/11/23 00:31:46;;;;;;;1.45;1.13;;;;;;;4.98;82.91;98601.84;6217391;28;20068;-74
2022/11/23 00:34:47;;;;;;;0.88;0.80;;;;;;;4.98;83.36;98602.69;6217273;28;20485;-74
2022/11/23 00:37:48;;;;;;;3.22;1.42;;;;;;;4.82;84.47;98605.38;6217297;28;20041;-74
2022/11/23 00:40:48;;;;;;;1.80;0.88;;;;;;;4.76;85.49;98603.16;6217250;28;20042;-74
2022/11/23 00:43:49;;;;;;;8.18;1.58;;;;;;;4.82;86.60;98592.44;6217194;28;20439;-74
2022/11/23 00:46:50;;;;;;;0.85;0.85;;;;;;;4.80;87.78;98588.28;6218386;28;20072;-74
2022/11/23 00:49:50;;;;;;;4.40;1.73;;;;;;;4.78;89.82;98587.56;6217118;28;20042;-74
2022/11/23 00:52:51;;;;;;;1.88;1.40;;;;;;;4.69;88.70;98582.94;6217130;28;20405;-74
2022/11/23 00:55:53;;;;;;;2.90;1.20;;;;;;;4.62;90.86;98578.13;6218155;28;20070;-74
2022/11/23 00:58:56;;;;;;;2.03;1.67;;;;;;;4.64;90.83;98584.03;6216761;28;20137;-74
2022/11/23 01:01:59;;;;;;;;;;;;;;;4.68;91.38;98597.63;6218454;28;20050;-74
2022/11/23 01:05:00;;;;;;;;;;;;;;;4.65;90.54;98597.78;6218487;28;20308;-74
2022/11/23 01:08:01;;;;;;;1.58;1.02;;;;;;;4.59;89.34;98592.97;6216813;28;19921;-74
2022/11/23 01:11:05;;;;;;;2.28;0.85;;;;;;;4.59;90.84;98582.66;6216886;28;20125;-74
2022/11/23 01:14:06;;;;;;;0.75;0.75;;;;;;;4.70;92.06;98585.44;6200669;28;20042;-78
2022/11/23 01:17:07;;;;;;;1.67;1.35;;;;;;;4.75;95.31;98604.06;6217908;28;20046;-78
2022/11/23 01:20:08;;;;;;;8.43;2.33;;;;;;;4.69;96.21;98616.53;6216669;28;20068;-78
2022/11/23 01:23:09;;;;;;;2.90;1.50;;;;;;;4.51;98.09;98616.72;6217989;28;20046;-78
2022/11/23 01:26:10;;;;;;;3.45;2.28;;;;;;;4.68;98.52;98626.03;6216608;28;20163;-78
2022/11/23 01:29:11;;;;;;;2.00;1.40;;;;;;;4.67;99.21;98614.03;6217696;28;20050;-78
2022/11/23 01:32:12;;;;;;;3.22;1.73;;;;;;;4.72;100.00;98611.19;6217736;28;20045;-78
2022/11/23 01:35:13;;;;;;;2.20;1.35;;;;;;;4.41;98.79;98598.31;6216460;28;20058;-78
2022/11/23 01:38:13;;;;;;;1.27;0.98;;;;;;;4.47;100.00;98602.31;6219697;28;20045;-78
2022/11/23 01:41:17;;;;;;;1.95;1.13;;;;;;;4.50;100.00;98603.88;6220531;28;20073;-78
2022/11/23 01:44:33;;;;;;;3.63;1.63;;;;;;;4.49;100.00;98600.47;6220466;28;20054;-78
2022/11/23 01:47:34;;;;;;;1.80;1.15;;;;;;;4.53;100.00;98586.44;6220377;28;20046;-78
2022/11/23 01:50:36;;;;;;;1.70;1.37;;;;;;;4.49;100.00;98597.03;6220585;28;20486;-78
2022/11/23 01:53:38;;;;;;;1.67;1.13;;;;;;;4.56;100.00;98594.00;6221485;28;20286;-78
2022/11/23 01:56:42;;;;;;;2.72;1.80;;;;;;;4.59;100.00;98595.56;6221452;28;20053;-78
2022/11/23 01:59:45;;;;;;;2.10;1.05;;;;;;;4.55;100.00;98602.69;6220058;28;20563;-74
2022/11/23 02:02:57;;;;;;;4.22;1.52;;;;;;;4.56;100.00;98604.34;6221274;28;20478;-79
2022/11/23 02:06:04;;;;;;;2.28;1.42;;;;;;;4.60;100.00;98610.16;6221200;28;20045;-79
2022/11/23 02:09:05;;;;;;;3.00;1.73;;;;;;;4.59;100.00;98599.00;6220032;28;20077;-74
2022/11/23 02:12:10;;;;;;;2.40;1.50;;;;;;;4.50;100.00;98602.09;6221100;28;20117;-75
2022/11/23 02:15:11;;;;;;;3.42;1.73;;;;;;;4.53;100.00;98601.09;6220949;28;20099;-74
2022/11/23 02:18:19;;;;;;;6.55;1.17;;;;;;;4.55;100.00;98609.59;6219756;28;20046;-75
2022/11/23 02:21:22;;;;;;;3.30;1.15;;;;;;;4.52;100.00;98602.03;6219804;28;20513;-75
2022/11/23 02:24:29;;;;;;;5.47;1.02;;;;;;;4.48;100.00;98600.53;6323137;27;20046;-74
2022/11/23 02:27:30;;;;;;;1.10;0.75;;;;;;;4.46;100.00;98594.63;6219754;28;20528;-75
2022/11/23 02:30:35;;;;;;;2.90;1.33;;;;;;;4.28;100.00;98588.81;6203218;28;20054;-74
2022/11/23 02:33:39;;;;;;;3.65;1.48;;;;;;;4.29;100.00;98587.91;6220639;28;20041;-74
2022/11/23 02:36:42;;;;;;;2.88;1.73;;;;;;;4.30;100.00;98586.97;6220737;28;20045;-74
2022/11/23 02:39:52;;;;;;;2.75;1.52;;;;;;;4.10;100.00;98570.03;6203044;28;20053;-75
2022/11/23 02:42:54;;;;;;;3.28;1.13;;;;;;;4.18;100.00;98576.44;6219296;28;20050;-75
2022/11/23 02:45:58;;;;;;;2.70;1.63;;;;;;;4.22;100.00;98570.19;6322403;27;20136;-75
2022/11/23 02:48:59;;;;;;;4.10;1.20;;;;;;;4.11;100.00;98574.28;6218227;28;20083;-75
2022/11/23 02:52:01;;;;;;;1.77;1.05;;;;;;;4.14;100.00;98559.47;6220352;28;20048;-75
2022/11/23 02:55:02;;;;;;;7.03;2.08;;;;;;;4.29;100.00;98554.31;6202731;28;20130;-75
2022/11/23 02:58:04;;;;;;;3.40;1.83;;;;;;;4.25;100.00;98551.09;6218882;28;20054;-75
2022/11/23 03:01:04;;;;;;;3.22;1.52;;;;;;;4.11;100.00;98549.31;6219027;28;20069;-75
2022/11/23 03:04:06;;;;;;;2.05;1.00;;;;;;;4.05;100.00;98547.09;6218893;28;20524;-75
2022/11/23 03:07:07;;;;;;;2.97;1.97;;;;;;;4.14;100.00;98554.31;6219031;28;20550;-75
2022/11/23 03:10:08;;;;;;;3.83;1.73;;;;;;;4.13;100.00;98544.06;6220096;28;20050;-75
2022/11/23 03:13:09;;;;;;;3.10;1.70;;;;;;;4.10;100.00;98542.50;6219940;28;20050;-74
2022/11/23 03:16:09;;;;;;;1.83;1.13;;;;;;;4.17;100.00;98542.97;6220143;28;20053;-75
2022/11/23 03:19:10;;;;;;;1.42;1.33;;;;;;;4.13;100.00;98541.47;6218627;28;20042;-74
2022/11/23 03:22:14;;;;;;;2.40;1.67;;;;;;;3.99;100.00;98543.09;6219803;28;20078;-74
2022/11/23 03:25:15;;;;;;;1.25;0.77;;;;;;;3.98;100.00;98543.22;6219673;28;20122;-75
2022/11/23 03:28:15;;;;;;;2.00;1.33;;;;;;;4.00;100.00;98531.88;6218533;28;20439;-75
2022/11/23 03:31:16;;;;;;;2.38;1.33;;;;;;;4.14;100.00;98538.81;6218548;28;20046;-75
2022/11/23 03:34:19;;;;;;;1.80;1.60;;;;;;;4.07;100.00;98534.91;6219532;28;20042;-75
2022/11/23 03:37:20;;;;;;;2.28;1.42;;;;;;;4.05;100.00;98536.75;6218360;28;20482;-75
2022/11/23 03:40:21;;;;;;;1.58;1.08;;;;;;;4.09;100.00;98540.81;6219473;28;20067;-76
2022/11/23 03:43:22;;;;;;;2.17;1.40;;;;;;;4.09;100.00;98542.59;6218302;28;20121;-79
2022/11/23 03:46:22;;;;;;;5.13;1.17;;;;;;;4.06;100.00;98540.16;6219376;28;20072;-79
2022/11/23 03:49:24;;;;;;;1.70;1.35;;;;;;;4.13;100.00;98538.91;6219385;28;20075;-79
2022/11/23 03:52:24;;;;;;;2.72;1.45;;;;;;;4.11;100.00;98538.97;6219352;28;20041;-79
2022/11/23 03:55:25;;;;;;;15.93;2.10;;;;;;;4.13;100.00;98547.47;6217988;28;20049;-79
2022/11/23 03:58:26;;;;;;;2.35;1.10;;;;;;;4.12;100.00;98547.53;6218973;28;20418;-79
2022/11/23 04:01:27;;;;;;;2.20;1.10;;;;;;;4.08;100.00;98544.34;6217792;28;20046;-80
2022/11/23 04:04:27;;;;;;;1.27;1.17;;;;;;;4.01;100.00;98551.59;6217836;28;20034;-79
2022/11/23 04:07:30;;;;;;;1.63;1.35;;;;;;;4.15;100.00;98555.94;6219031;28;20046;-80
2022/11/23 04:10:31;;;;;;;2.15;1.63;;;;;;;3.96;100.00;98552.78;6217896;28;20050;-79
2022/11/23 04:13:31;;;;;;;1.20;0.95;;;;;;;4.06;100.00;98555.66;6218888;28;20122;-80
2022/11/23 04:16:32;;;;;;;6.32;1.77;;;;;;;4.05;100.00;98549.66;6217707;28;20144;-80
2022/11/23 04:19:33;;;;;;;1.67;1.35;;;;;;;4.07;100.00;98554.75;6217694;28;20125;-80
2022/11/23 04:22:34;;;;;;;2.35;1.70;;;;;;;4.01;100.00;98546.41;6218893;28;20045;-79
2022/11/23 04:25:34;;;;;;;5.32;1.85;;;;;;;4.02;100.00;98552.44;6218808;28;20038;-80
2022/11/23 04:28:38;;;;;;;7.20;1.30;;;;;;;4.06;100.00;98558.22;6218706;28;20079;-80
2022/11/23 04:31:39;;;;;;;1.40;1.13;;;;;;;4.05;100.00;98570.31;6218806;28;20046;-80
2022/11/23 04:34:40;;;;;;;2.25;1.45;;;;;;;3.98;100.00;98562.09;6217456;28;20046;-80
2022/11/23 04:37:43;;;;;;;2.95;1.52;;;;;;;3.98;100.00;98551.78;6218480;28;20045;-80
2022/11/23 04:40:46;;;;;;;3.53;1.42;;;;;;;3.94;100.00;98554.63;6218400;28;20137;-80
2022/11/23 04:43:47;;;;;;;1.58;1.15;;;;;;;3.99;100.00;98553.41;6218887;28;20049;-80
2022/11/23 04:46:49;;;;;;;2.60;1.60;;;;;;;3.97;100.00;98554.44;6217234;28;20042;-80
2022/11/23 04:49:50;;;;;;;3.40;2.13;;;;;;;3.86;100.00;98555.06;6217265;28;20107;-80
2022/11/23 04:52:50;;;;;;;2.75;1.85;;;;;;;3.79;100.00;98544.28;6217107;28;20042;-80
2022/11/23 04:55:51;;;;;;;2.53;2.10;;;;;;;3.68;100.00;98538.06;6217136;28;20107;-80
2022/11/23 04:58:52;;;;;;;1.65;1.33;;;;;;;3.80;100.00;98566.56;6217981;28;20170;-80
2022/11/23 05:01:53;;;;;;;4.28;1.60;;;;;;;3.75;100.00;98558.25;6217059;28;20080;-80
2022/11/23 05:04:54;;;;;;;6.65;1.70;;;;;;;3.75;100.00;98560.84;6217038;28;20054;-79
2022/11/23 05:07:56;;;;;;;1.33;1.08;;;;;;;3.76;100.00;98569.41;6216934;28;20529;-79
2022/11/23 05:10:57;;;;;;;2.80;1.25;;;;;;;3.88;100.00;98567.88;6218228;28;20102;-76
2022/11/23 05:13:57;;;;;;;1.88;1.48;;;;;;;3.76;100.00;98554.75;6221065;28;20475;-76
2022/11/23 05:16:58;;;;;;;9.77;5.45;;;;;;;3.63;100.00;98562.34;6222256;28;20038;-76
2022/11/23 05:19:59;;;;;;;6.20;4.03;;;;;;;3.63;100.00;98562.34;6222530;28;20125;-76
2022/11/23 05:22:59;;;;;;;8.18;3.53;;;;;;;3.63;100.00;98556.38;6220984;28;20041;-76
2022/11/23 05:26:00;;;;;;;15.77;9.35;;;;;;;3.71;100.00;98551.63;6221004;28;20133;-77
2022/11/23 05:29:01;;;;;;;20.73;9.30;;;;;;;3.66;100.00;98550.22;6222064;28;20501;-76
2022/11/23 05:32:02;;;;;;;15.88;9.13;;;;;;;3.56;100.00;98535.25;6220799;28;20042;-76
2022/11/23 05:35:02;;;;;;;2.92;2.58;;;;;;;3.66;100.00;98539.88;6220729;28;20077;-76
2022/11/23 05:38:04;;;;;;;2.38;1.70;;;;;;;3.66;100.00;98543.28;6220554;28;20071;-76
2022/11/23 05:41:05;;;;;;;1.63;1.42;;;;;;;3.58;100.00;98543.75;6220627;28;20435;-76
2022/11/23 05:44:06;;;;;;;3.10;2.10;;;;;;;3.63;100.00;98538.31;6220586;28;20042;-76
2022/11/23 05:47:07;;;;;;;4.15;2.30;;;;;;;3.68;100.00;98549.19;6322526;27;20603;-79
2022/11/23 05:50:08;;;;;;;3.58;1.40;;;;;;;3.59;100.00;98535.06;6221136;28;20172;-80
2022/11/23 05:53:08;;;;;;;3.33;1.55;;;;;;;3.53;100.00;98529.44;6221005;28;20073;-80
2022/11/23 05:56:09;;;;;;;2.75;1.55;;;;;;;3.62;100.00;98528.91;6219523;28;20743;-80
2022/11/23 05:59:10;;;;;;;1.17;1.08;;;;;;;3.66;100.00;98527.00;6219427;28;20053;-80
2022/11/23 06:02:11;;;;;;;6.78;2.25;;;;;;;3.59;100.00;98522.19;6221068;28;20046;-79
2022/11/23 06:05:12;;;;;;;3.40;1.70;;;;;;;3.58;100.00;98530.84;6221339;28;20053;-79
2022/11/23 06:08:13;;;;;;;2.30;0.82;;;;;;;3.71;100.00;98523.25;6221568;28;20098;-79
2022/11/23 06:11:13;;;;;;;1.88;1.38;;;;;;;3.72;100.00;98517.16;6221216;28;20045;-79
2022/11/23 06:14:14;;;;;;;2.50;1.27;;;;;;;3.75;100.00;98519.56;6220997;28;20046;-79
2022/11/23 06:17:15;;;;;;;6.03;1.35;;;;;;;3.79;100.00;98520.22;6219784;28;20038;-79
2022/11/23 06:20:15;;;;;;;2.17;1.33;;;;;;;3.82;100.00;98517.47;6219769;28;20042;-79
2022/11/23 06:23:16;;;;;;;2.28;0.80;;;;;;;3.82;100.00;98520.03;6219748;28;20061;-80
2022/11/23 06:26:17;;;;;;;2.35;1.75;;;;;;;3.91;100.00;98524.69;6220684;28;20512;-80
2022/11/23 06:29:19;;;;;;;1.85;1.33;;;;;;;4.01;100.00;98530.94;6219690;28;20056;-75
2022/11/23 06:32:20;;;;;;;7.10;2.10;;;;;;;3.98;100.00;98530.31;6219637;28;20053;-75
2022/11/23 06:35:20;;;;;;;4.00;1.90;;;;;;;4.07;100.00;98526.34;6220768;28;20440;-76
2022/11/23 06:38:21;;;;;;;7.70;3.97;;;;;;;4.08;100.00;98528.84;6305184;28;20211;-75
2022/11/23 06:41:23;;;;;;;7.90;2.75;;;;;;;4.15;100.00;98534.47;6219364;28;20517;-79
2022/11/23 06:44:23;;;;;;;4.63;3.22;;;;;;;4.12;100.00;98537.22;6202881;28;20050;-79
2022/11/23 06:47:24;;;;;;;1.38;0.88;;;;;;;4.16;100.00;98544.72;6219141;28;20050;-75
2022/11/23 06:50:25;;;;;;;3.22;1.92;;;;;;;4.34;100.00;98553.09;6220876;28;20066;-75
2022/11/23 06:53:27;;;;;;;2.15;1.50;;;;;;;4.42;100.00;98548.31;6219018;28;20096;-75
2022/11/23 06:56:30;;;;;;;2.53;1.27;;;;;;;4.37;100.00;98550.38;6220194;28;20042;-79
2022/11/23 06:59:31;;;;;;;5.15;1.30;;;;;;;4.25;100.00;98548.50;6219992;28;20410;-75
2022/11/23 07:02:31;;;;;;;3.75;1.90;;;;;;;4.34;100.00;98558.28;6218952;28;20049;-75
2022/11/23 07:05:32;;;;;;;1.77;1.13;;;;;;;4.38;100.00;98558.94;6218927;28;20077;-75
2022/11/23 07:08:34;;;;;;;4.90;1.83;;;;;;;4.35;100.00;98559.13;6304670;28;20102;-76
2022/11/23 07:11:35;;;;;;;2.20;1.90;;;;;;;4.27;100.00;98575.06;6218898;28;20420;-75
2022/11/23 07:14:36;;;;;;;3.20;1.63;;;;;;;4.42;100.00;98570.75;6219840;28;20045;-75
2022/11/23 07:17:40;;;;;;;4.43;1.90;;;;;;;4.29;100.00;98556.91;6218696;28;20042;-79
2022/11/23 07:20:41;;;;;;;2.60;1.48;;;;;;;4.32;100.00;98556.72;6219760;28;20387;-75
2022/11/23 07:23:42;;;;;;;3.03;1.95;;;;;;;4.42;100.00;98560.41;6218609;28;20053;-75
2022/11/23 07:26:42;;;;;;;4.10;1.90;;;;;;;4.34;100.00;98562.63;6202159;28;20431;-76
2022/11/23 07:29:44;;;;;;;3.63;2.00;;;;;;;4.42;100.00;98557.81;6219566;28;20421;-75
2022/11/23 07:32:44;;;;;;;3.50;1.80;;;;;;;4.45;100.00;98562.81;6219707;28;20038;-75
2022/11/23 07:35:46;;;;;;;0.93;0.80;;;;;;;4.35;100.00;98559.94;6219012;28;20126;-75
2022/11/23 07:38:47;;;;;;;2.17;1.75;;;;;;;4.48;100.00;98560.03;6219351;28;20046;-75
2022/11/23 07:41:48;;;;;;;1.70;1.52;;;;;;;4.46;100.00;98567.06;6219376;28;20099;-75
2022/11/23 07:44:48;;;;;;;2.80;1.88;;;;;;;4.53;100.00;98564.94;6219464;28;20046;-76
2022/11/23 07:48:00;;;;;;;6.75;2.47;;;;;;;4.52;100.00;98565.88;6218096;28;20044;-75
2022/11/23 07:51:01;;;;;;;1.88;1.60;;;;;;;4.68;100.00;98555.44;6218044;28;20099;-75
2022/11/23 07:54:01;;;;;;;2.05;1.40;;;;;;;4.54;100.00;98556.28;6218066;28;20046;-75
2022/11/23 07:57:02;;;;;;;3.10;1.85;;;;;;;4.49;100.00;98548.81;6219230;28;20046;-76
2022/11/23 08:00:04;;;;;;;2.97;1.83;;;;;;;4.52;100.00;98561.53;6218768;28;20506;-75
2022/11/23 08:03:04;;;;;;;4.43;2.33;;;;;;;4.51;100.00;98552.13;6217935;28;20050;-75
2022/11/23 08:06:08;;;;;;;4.80;2.25;;;;;;;4.62;100.00;98551.47;6217928;28;20045;-76
2022/11/23 08:09:09;;;;;;;5.28;1.77;;;;;;;4.59;100.00;98549.91;6217743;28;20457;-75
2022/11/23 08:12:10;;;;;;;4.63;2.75;;;;;;;4.68;100.00;98551.09;6217755;28;20041;-75
2022/11/23 08:15:10;;;;;;;2.95;2.00;;;;;;;4.96;100.00;98559.72;6217687;28;20053;-76
2022/11/23 08:18:11;;;;;;;3.70;2.53;;;;;;;4.85;100.00;98555.22;6217475;28;20046;-75
2022/11/23 08:21:12;;;;;;;5.40;2.80;;;;;;;4.79;100.00;98547.84;6217541;28;20118;-75
2022/11/23 08:24:12;;;;;;;5.15;2.38;;;;;;;4.88;100.00;98549.91;6217486;28;20077;-76
2022/11/23 08:27:13;;;;;;;2.20;1.85;;;;;;;4.85;100.00;98547.47;6218605;28;20046;-75
2022/11/23 08:30:14;;;;;;;2.40;1.75;;;;;;;5.08;100.00;98561.56;6217396;28;20069;-75
2022/11/23 08:33:15;;;;;;;2.63;1.92;;;;;;;5.10;100.00;98548.53;6218589;28;20046;-75
2022/11/23 08:36:16;;;;;;;8.45;2.15;;;;;;;5.17;100.00;98557.59;6218363;28;20053;-76
2022/11/23 08:39:19;;;;;;;3.72;1.98;;;;;;;5.04;100.00;98554.91;6218194;28;20070;-76
2022/11/23 08:42:20;;;;;;;2.90;1.55;;;;;;;5.17;100.00;98548.06;6217123;28;20045;-75
2022/11/23 08:45:21;;;;;;;3.63;1.88;;;;;;;5.22;100.00;98545.19;6218333;28;20121;-75
2022/11/23 08:48:22;;;;;;;4.53;2.10;;;;;;;5.15;100.00;98549.09;6307055;28;20050;-75
2022/11/23 08:51:22;;;;;;;1.60;1.17;;;;;;;5.14;100.00;98552.59;6221522;28;20117;-76
2022/11/23 08:54:23;;;;;;;3.60;1.80;;;;;;;5.25;100.00;98568.28;6221483;28;20046;-75
2022/11/23 08:57:24;;;;;;;3.47;1.92;;;;;;;5.25;100.00;98571.69;6222475;28;20482;-75
2022/11/23 09:00:26;;;;;;;3.80;1.73;;;;;;;5.35;100.00;98560.75;6222169;28;20054;-75
2022/11/23 09:03:26;;;;;;;2.85;1.92;;;;;;;5.44;100.00;98558.44;6221209;28;20090;-76
2022/11/23 09:06:28;;;;;;;4.82;2.35;;;;;;;5.49;100.00;98557.31;6222358;28;20444;-76
2022/11/23 09:09:28;;;;;;;5.20;1.75;;;;;;;5.44;100.00;98558.44;6204658;28;20054;-75
2022/11/23 09:12:29;;;;;;;6.75;1.52;;;;;;;5.34;100.00;98553.94;6221161;28;20409;-75
2022/11/23 09:15:30;;;;;;;3.25;2.10;;;;;;;5.43;100.00;98540.41;6324673;27;20080;-76
2022/11/23 09:18:32;;;;;;;2.97;1.85;;;;;;;5.40;100.00;98549.19;6221987;28;20081;-75
2022/11/23 09:21:34;;;;;;;6.90;1.90;;;;;;;5.49;100.00;98541.78;6222025;28;20053;-76
2022/11/23 09:24:35;;;;;;;3.03;2.03;;;;;;;5.49;100.00;98547.78;6221967;28;20046;-75
2022/11/23 09:27:36;;;;;;;2.55;1.75;;;;;;;5.67;100.00;98547.53;6220759;28;20433;-76
2022/11/23 09:30:36;;;;;;;3.13;1.95;;;;;;;5.56;100.00;98543.03;6220657;28;20042;-75
2022/11/23 09:33:37;;;;;;;4.30;2.13;;;;;;;5.53;100.00;98541.47;6220671;28;20038;-76
2022/11/23 09:36:38;;;;;;;3.35;2.22;;;;;;;5.71;100.00;98546.41;6204112;28;20057;-75
2022/11/23 09:39:38;;;;;;;3.67;2.28;;;;;;;5.72;100.00;98528.16;6220389;28;20077;-76
2022/11/23 09:43:13;;;;;;;5.72;2.15;;;;;;;5.91;100.00;98534.72;6220429;28;20048;-75
2022/11/23 09:46:26;;;;;;;4.15;2.33;;;;;;;5.91;100.00;98543.34;6221571;28;20050;-75
2022/11/23 09:49:37;;;;;;;5.20;3.00;;;;;;;5.98;100.00;98536.84;6220231;28;20481;-76
2022/11/23 09:52:41;;;;;;;4.18;2.63;;;;;;;6.02;100.00;98532.31;6220185;28;20410;-76
2022/11/23 09:55:45;;;;;;;5.60;3.17;;;;;;;6.27;100.00;98531.47;6221713;28;20099;-76
2022/11/23 09:58:57;;;;;;;5.22;3.03;;;;;;;6.33;100.00;98528.47;6220290;28;20054;-76
2022/11/23 10:01:59;;;;;;;3.60;2.80;;;;;;;6.33;100.00;98536.25;6304771;28;20057;-76
2022/11/23 10:05:03;;;;;;;6.25;3.05;;;;;;;6.53;100.00;98534.09;6218715;28;20057;-76
2022/11/23 10:09:01;;;;;;;5.45;3.05;;;;;;;6.56;100.00;98532.09;6219821;28;20080;-79
2022/11/23 10:12:03;;;;;;;3.60;2.20;;;;;;;6.42;100.00;98533.06;6226304;28;20062;-79
2022/11/23 10:15:13;;;;;;;;;;;;;;;6.23;100.00;98538.63;6218968;28;20050;-79
2022/11/23 10:18:39;;;;;;;4.72;2.72;;;;;;;6.50;100.00;98542.88;6218389;28;19921;-79
2022/11/23 10:21:59;;;;;;;3.72;2.63;;;;;;;6.57;100.00;98538.09;6223387;28;20054;-79
2022/11/23 10:25:09;;;;;;;4.32;2.90;;;;;;;6.55;100.00;98529.63;6218495;28;20038;-79
2022/11/23 10:28:17;;;;;;;5.63;3.20;;;;;;;6.57;100.00;98531.16;6304518;28;20212;-79
2022/11/23 10:31:24;;;;;;;4.75;3.20;;;;;;;6.68;100.00;98529.59;6219467;28;20042;-79
2022/11/23 10:34:50;;;;;;;4.78;2.90;;;;;;;6.43;100.00;98533.88;6218242;28;20045;-78
2022/11/23 10:37:50;;;;;;;4.47;2.75;;;;;;;6.54;100.00;98521.00;6218390;28;20053;-78
2022/11/23 10:41:00;;;;;;;5.10;3.17;;;;;;;6.57;100.00;98531.16;6218032;28;20034;-79
2022/11/23 10:44:17;;;;;;;9.95;2.83;;;;;;;6.71;100.00;98539.75;6219270;28;20102;-79
2022/11/23 10:47:50;;;;;;;6.18;2.60;;;;;;;6.63;100.00;98543.72;6219152;28;20049;-79
2022/11/23 10:50:51;;;;;;;4.57;2.90;;;;;;;6.60;100.00;98545.66;6218121;28;20053;-79
2022/11/23 10:54:34;;;;;;;5.00;3.10;;;;;;;6.76;100.00;98542.84;6219092;28;20042;-79
2022/11/23 10:57:43;;;;;;;7.75;3.47;;;;;;;6.76;100.00;98529.91;6219050;28;20401;-79
2022/11/23 11:00:44;;;;;;;6.60;3.67;;;;;;;6.85;100.00;98535.25;6180030;28;1143466;-79
2022/11/23 11:03:44;;;;;;;4.88;2.42;;;;;;;6.78;100.00;98523.66;6220225;28;20037;-79
2022/11/23 11:06:47;;;;;;;19.63;10.07;;;;;;;6.91;100.00;98520.22;6218913;28;20053;-79
2022/11/23 11:09:51;;;;;;;13.57;9.23;;;;;;;6.81;100.00;98522.63;6219140;28;20482;-78
2022/11/23 11:12:51;;;;;;;6.95;4.13;;;;;;;6.83;100.00;98526.75;6219968;28;20046;-79
2022/11/23 11:15:57;;;;;;;4.53;3.13;;;;;;;6.85;100.00;98516.28;6220019;28;20065;-79
2022/11/23 11:18:59;;;;;;;9.32;4.70;;;;;;;6.91;100.00;98518.44;6321716;27;20042;-79
2022/11/23 11:22:25;;;;;;;11.93;4.70;;;;;;;6.90;100.00;98516.81;6321826;27;20050;-79
2022/11/23 11:25:28;;;;;;;4.60;2.70;;;;;;;6.95;100.00;98519.06;6226520;28;20141;-79
2022/11/23 11:28:40;;;;;;;5.88;3.42;;;;;;;6.89;100.00;98516.91;6219771;28;20041;-79
2022/11/23 11:31:41;;;;;;;7.00;3.27;;;;;;;6.99;100.00;98516.13;6219613;28;20094;-79
2022/11/23 11:34:51;;;;;;;3.17;2.30;;;;;;;6.94;100.00;98512.19;6218536;28;20041;-79
2022/11/23 11:37:56;;;;;;;2.55;2.10;;;;;;;7.09;100.00;98520.69;6219508;28;20069;-79
2022/11/23 11:41:01;;;;;;;7.55;3.05;;;;;;;7.14;100.00;98519.41;6321026;27;20046;-79
2022/11/23 11:44:12;;;;;;;7.07;3.25;;;;;;;7.27;100.00;98524.56;6304084;28;20563;-79
2022/11/23 11:47:24;;;;;;;16.15;8.25;;;;;;;7.25;100.00;98522.06;6219443;28;20421;-79
2022/11/23 11:50:30;;;;;;;9.20;5.80;;;;;;;7.39;100.00;98522.81;6218237;28;20045;-79
2022/11/23 11:53:42;;;;;;;4.75;3.38;;;;;;;7.41;100.00;98528.75;6218090;28;20042;-79
2022/11/23 11:56:50;;;;;;;6.18;3.72;;;;;;;7.53;100.00;98525.25;6217970;28;20441;-80
2022/11/23 11:59:57;;;;;;;6.13;3.33;;;;;;;7.58;100.00;98536.16;6303685;28;20054;-79
2022/11/23 12:03:00;;;;;;;8.65;5.40;;;;;;;7.62;100.00;98545.38;6320915;27;20080;-79
2022/11/23 12:06:17;;;;;;;8.35;4.65;;;;;;;7.75;100.00;98532.31;6201618;28;20102;-79
2022/11/23 12:09:23;;;;;;;6.63;3.65;;;;;;;7.81;100.00;98534.47;6219034;28;20046;-79
2022/11/23 12:12:33;;;;;;;12.25;5.28;;;;;;;7.48;100.00;98517.00;6217705;28;20042;-79
2022/11/23 12:15:41;;;;;;;11.35;6.35;;;;;;;7.62;100.00;98532.38;6217748;28;20053;-79
2022/11/23 12:19:04;;;;;;;8.60;4.97;;;;;;;7.69;100.00;98529.34;6217497;28;20482;-79
2022/11/23 12:22:19;;;;;;;6.85;3.78;;;;;;;7.76;100.00;98522.75;6218657;28;20477;-79
2022/11/23 12:25:37;;;;;;;5.10;3.55;;;;;;;7.66;100.00;98520.03;6217630;28;20123;-79
2022/11/23 12:28:40;;;;;;;7.05;4.32;;;;;;;7.64;100.00;98533.09;6217419;28;20046;-79
2022/11/23 12:31:49;;;;;;;10.80;5.38;;;;;;;7.74;100.00;98517.69;6201109;28;20041;-79
2022/11/23 12:35:12;;;;;;;5.85;3.88;;;;;;;7.65;100.00;98524.38;6200952;28;20053;-79
2022/11/23 12:38:50;;;;;;;11.88;5.80;;;;;;;7.79;100.00;98531.16;6201030;28;20056;-79
2022/11/23 12:41:57;;;;;;;14.40;7.38;;;;;;;7.75;100.00;98531.50;6217479;28;20535;-79
2022/11/23 12:45:25;;;;;;;16.77;7.35;;;;;;;7.75;100.00;98521.91;6217185;28;20042;-79
2022/11/23 12:48:44;;;;;;;8.25;5.10;;;;;;;7.91;100.00;98524.22;6217102;28;20053;-79
2022/11/23 12:51:56;;;;;;;8.85;4.63;;;;;;;7.98;100.00;98527.19;6217193;28;20038;-79
2022/11/23 12:55:23;;;;;;;9.13;5.07;;;;;;;7.96;100.00;98522.09;6218243;28;20496;-79
2022/11/23 12:58:33;;;;;;;6.90;3.63;;;;;;;7.98;100.00;98528.00;6216721;28;20046;-79
2022/11/23 13:01:38;;;;;;;4.80;3.28;;;;;;;7.77;100.00;98530.44;6319631;28;20056;-79
2022/11/23 13:05:01;;;;;;;9.82;4.80;;;;;;;7.85;100.00;98522.06;6216885;28;20478;-79
2022/11/23 13:08:31;;;;;;;11.13;5.68;;;;;;;7.87;100.00;98534.00;6218100;28;20042;-79
2022/11/23 13:12:21;;;;;;;13.35;5.60;;;;;;;7.96;100.00;98539.47;6222487;28;20061;-79
2022/11/23 13:15:39;;;;;;;14.75;7.07;;;;;;;7.87;100.00;98536.59;6270518;28;20484;-79
2022/11/23 13:18:40;;;;;;;6.28;4.10;;;;;;;7.76;100.00;98539.19;6216516;28;20565;-79
2022/11/23 13:21:43;;;;;;;9.98;5.38;;;;;;;7.78;100.00;98529.50;6216664;28;20166;-79
2022/11/23 13:25:29;;;;;;;7.45;4.60;;;;;;;7.76;100.00;98533.13;6216695;28;20490;-79
2022/11/23 13:28:32;;;;;;;8.52;5.18;;;;;;;7.88;100.00;98538.25;6223004;28;20065;-79
2022/11/23 13:31:34;;;;;;;17.13;7.10;;;;;;;7.73;100.00;98541.16;6302495;28;20050;-79
2022/11/23 13:34:46;;;;;;;15.07;6.95;;;;;;;7.75;100.00;98547.06;6220260;28;20046;-79
2022/11/23 13:37:56;;;;;;;11.43;5.80;;;;;;;7.64;100.00;98550.44;6220687;28;20045;-79
2022/11/23 13:40:56;;;;;;;10.65;4.07;;;;;;;7.73;100.00;98549.78;6203998;28;20344;-79
2022/11/23 13:43:57;;;;;;;7.53;4.22;;;;;;;7.55;100.00;98556.31;6220488;28;20402;-79
2022/11/23 13:46:58;;;;;;;9.95;4.68;;;;;;;7.49;100.00;98552.38;6220478;28;20341;-79
2022/11/23 13:50:18;;;;;;;7.82;3.33;;;;;;;7.27;100.00;98542.72;6220360;28;20073;-79
2022/11/23 13:53:34;;;;;;;7.75;3.88;;;;;;;7.32;100.00;98552.78;6203883;28;20140;-79
2022/11/23 13:56:39;;;;;;;8.23;4.50;;;;;;;7.33;100.00;98551.81;6203883;28;20054;-79
2022/11/23 13:59:40;;;;;;;5.97;3.53;;;;;;;7.21;100.00;98558.72;6221184;28;20134;-79
2022/11/23 14:02:41;;;;;;;4.50;3.25;;;;;;;7.28;100.00;98553.94;6203621;28;20054;-79
2022/11/23 14:05:47;;;;;;;6.18;3.92;;;;;;;7.22;100.00;98558.59;6219932;28;20046;-79
2022/11/23 14:09:14;;;;;;;16.55;4.57;;;;;;;7.18;100.00;98557.16;6221169;28;20046;-76
2022/11/23 14:12:21;;;;;;;5.65;3.53;;;;;;;7.19;100.00;98558.81;6243838;28;20065;-76
2022/11/23 14:15:26;;;;;;;5.47;3.53;;;;;;;7.13;100.00;98556.66;6219732;28;20474;-76
2022/11/23 14:18:50;;;;;;;6.15;2.58;;;;;;;7.02;100.00;98562.63;6220855;28;20053;-76
2022/11/23 14:22:21;;;;;;;9.23;3.28;;;;;;;7.11;100.00;98565.50;6220838;28;20478;-76
2022/11/23 14:25:30;;;;;;;4.13;2.78;;;;;;;7.03;100.00;98568.63;6220854;28;20113;-76
2022/11/23 14:29:05;;;;;;;5.28;3.40;;;;;;;6.93;100.00;98572.78;6220745;28;20046;-76
2022/11/23 14:32:35;;;;;;;8.40;4.00;;;;;;;6.83;100.00;98576.00;6305775;28;20049;-76